Time;durP1;ratioP1;P1;durP2;ratioP2;P2;SDS_P1;SDS_P2;PMS_P1;PMS_P2;Temp;Humidity;BMP_temperature;BMP_pressure;BME280_temperature;BME280_humidity;BME280_pressure;Samples;Min_cycle;Max_cycle;Signal;HPM_P1;HPM_P2
2022/09/21 00:01:25;;;;;;;4.83;3.60;;;;;;;;;;5055865;28;20448;-59
2022/09/21 00:03:54;;;;;;;4.20;3.83;;;;;;;;;;5055778;28;20454;-58
2022/09/21 00:06:22;;;;;;;2.97;2.77;;;;;;;;;;5055761;28;20823;-58
2022/09/21 00:08:49;;;;;;;3.07;2.83;;;;;;;;;;5055570;28;20856;-58
2022/09/21 00:11:18;;;;;;;3.67;3.37;;;;;;;;;;5055493;28;20444;-59
2022/09/21 00:13:45;;;;;;;3.73;3.43;;;;;;;;;;5055333;28;20450;-57
2022/09/21 00:16:13;;;;;;;3.23;3.03;;;;;;;;;;5055622;28;20444;-57
2022/09/21 00:18:40;;;;;;;3.67;3.30;;;;;;;;;;5055465;28;20484;-58
2022/09/21 00:21:09;;;;;;;3.70;3.40;;;;;;;;;;5055367;28;20454;-58
2022/09/21 00:23:37;;;;;;;4.30;3.37;;;;;;;;;;5055337;28;20494;-58
2022/09/21 00:26:04;;;;;;;4.40;3.80;;;;;;;;;;5055232;28;20483;-58
2022/09/21 00:28:31;;;;;;;3.47;3.00;;;;;;;;;;5055130;28;20551;-57
2022/09/21 00:31:01;;;;;;;4.30;3.60;;;;;;;;;;5055305;28;20803;-59
2022/09/21 00:33:28;;;;;;;3.60;3.37;;;;;;;;;;5055203;28;20453;-59
2022/09/21 00:35:55;;;;;;;6.20;3.77;;;;;;;;;;5055155;28;20452;-58
2022/09/21 00:38:23;;;;;;;3.30;3.03;;;;;;;;;;5054901;28;20472;-59
2022/09/21 00:40:50;;;;;;;4.17;3.37;;;;;;;;;;5054931;28;20989;-58
2022/09/21 00:43:18;;;;;;;3.30;3.10;;;;;;;;;;5055094;28;20451;-58
2022/09/21 00:45:45;;;;;;;4.50;4.03;;;;;;;;;;5055002;28;20538;-58
2022/09/21 00:48:12;;;;;;;3.83;3.10;;;;;;;;;;5054767;28;21014;-58
2022/09/21 00:50:42;;;;;;;3.80;3.50;;;;;;;;;;5055034;28;20543;-58
2022/09/21 00:53:10;;;;;;;3.53;3.20;;;;;;;;;;5054746;28;20502;-59
2022/09/21 00:55:41;;;;;;;3.80;3.47;;;;;;;;;;5054241;28;20453;-58
2022/09/21 00:58:10;;;;;;;3.70;3.40;;;;;;;;;;5054786;28;20460;-57
2022/09/21 01:00:38;;;;;;;4.13;3.78;;;;;;;;;;5054715;28;20814;-58
2022/09/21 01:03:05;;;;;;;3.77;3.43;;;;;;;;;;5054561;28;20248;-57
2022/09/21 01:05:32;;;;;;;4.17;3.30;;;;;;;;;;5054543;28;20535;-57
2022/09/21 01:08:01;;;;;;;4.23;3.70;;;;;;;;;;5054391;28;20551;-58
2022/09/21 01:10:30;;;;;;;3.73;3.43;;;;;;;;;;5054550;28;20448;-58
2022/09/21 01:13:05;;;;;;;3.83;3.30;;;;;;;;;;5054403;28;20444;-59
2022/09/21 01:15:36;;;;;;;3.50;3.20;;;;;;;;;;5054543;28;20548;-59
2022/09/21 01:18:09;;;;;;;4.37;3.27;;;;;;;;;;5054264;28;20789;-57
2022/09/21 01:20:44;;;;;;;3.90;3.13;;;;;;;;;;5054188;28;20456;-57
2022/09/21 01:23:22;;;;;;;4.80;3.40;;;;;;;;;;5054239;28;20817;-59
2022/09/21 01:25:57;;;;;;;3.03;2.83;;;;;;;;;;5054139;28;21007;-58
2022/09/21 01:28:29;;;;;;;3.83;3.43;;;;;;;;;;5054280;28;20456;-59
2022/09/21 01:31:04;;;;;;;2.80;2.60;;;;;;;;;;5054077;28;20459;-58
2022/09/21 01:33:35;;;;;;;7.60;3.00;;;;;;;;;;5054041;28;20463;-59
2022/09/21 01:36:04;;;;;;;3.33;3.13;;;;;;;;;;5054100;28;20452;-59
2022/09/21 01:38:33;;;;;;;4.50;3.70;;;;;;;;;;5053785;28;20476;-58
2022/09/21 01:41:02;;;;;;;4.10;3.60;;;;;;;;;;5053809;28;20455;-59
2022/09/21 01:43:32;;;;;;;4.87;3.90;;;;;;;;;;5053555;28;20782;-58
2022/09/21 01:46:02;;;;;;;3.40;3.10;;;;;;;;;;5053919;28;20448;-57
2022/09/21 01:48:31;;;;;;;3.90;3.40;;;;;;;;;;5053783;28;20472;-58
2022/09/21 01:50:59;;;;;;;4.20;3.80;;;;;;;;;;5053676;28;20186;-58
2022/09/21 01:53:28;;;;;;;3.80;3.50;;;;;;;;;;5053525;28;20456;-57
2022/09/21 01:55:57;;;;;;;3.27;2.97;;;;;;;;;;5053415;28;20445;-59
2022/09/21 01:58:27;;;;;;;4.20;3.40;;;;;;;;;;5053602;28;20797;-57
2022/09/21 02:00:56;;;;;;;4.87;3.73;;;;;;;;;;5053547;28;20543;-58
2022/09/21 02:03:27;;;;;;;4.70;3.60;;;;;;;;;;5053424;28;20444;-59
2022/09/21 02:05:56;;;;;;;4.13;3.70;;;;;;;;;;5053359;28;20448;-57
2022/09/21 02:08:25;;;;;;;3.33;3.00;;;;;;;;;;5052544;28;20809;-57
2022/09/21 02:10:53;;;;;;;3.27;3.07;;;;;;;;;;5053386;28;20451;-59
2022/09/21 02:13:22;;;;;;;3.33;3.13;;;;;;;;;;5053140;28;21053;-58
2022/09/21 02:15:53;;;;;;;4.43;3.67;;;;;;;;;;5053277;28;20457;-57
2022/09/21 02:18:28;;;;;;;3.13;2.93;;;;;;;;;;5053085;28;20445;-58
2022/09/21 02:20:58;;;;;;;3.80;3.27;;;;;;;;;;5053046;28;20951;-59
2022/09/21 02:23:27;;;;;;;6.63;3.50;;;;;;;;;;5053139;28;20455;-58
2022/09/21 02:25:57;;;;;;;3.30;3.00;;;;;;;;;;5053171;28;20444;-58
2022/09/21 02:28:29;;;;;;;4.53;3.27;;;;;;;;;;5053049;28;20450;-57
2022/09/21 02:31:01;;;;;;;3.27;3.00;;;;;;;;;;5053024;28;20448;-58
2022/09/21 02:33:31;;;;;;;3.43;3.13;;;;;;;;;;5052769;28;20462;-58
2022/09/21 02:36:06;;;;;;;3.00;2.80;;;;;;;;;;5053098;28;20461;-59
2022/09/21 02:38:36;;;;;;;3.60;3.30;;;;;;;;;;5052966;28;20448;-58
2022/09/21 02:41:05;;;;;;;3.47;3.20;;;;;;;;;;5052850;28;20450;-57
2022/09/21 02:43:34;;;;;;;4.20;3.90;;;;;;;;;;5052720;28;20491;-58
2022/09/21 02:46:05;;;;;;;3.80;3.50;;;;;;;;;;5052676;28;20895;-57
2022/09/21 02:48:33;;;;;;;3.73;3.30;;;;;;;;;;5052816;28;20571;-59
2022/09/21 02:51:04;;;;;;;4.10;3.20;;;;;;;;;;5052614;28;20990;-57
2022/09/21 02:53:35;;;;;;;3.35;3.05;;;;;;;;;;5052915;28;20456;-57
2022/09/21 02:56:05;;;;;;;3.50;3.20;;;;;;;;;;5052610;28;20285;-58
2022/09/21 02:58:34;;;;;;;3.90;3.60;;;;;;;;;;5052491;28;20970;-57
2022/09/21 03:01:03;;;;;;;3.10;2.87;;;;;;;;;;5052772;28;20538;-56
2022/09/21 03:03:30;;;;;;;4.63;3.47;;;;;;;;;;5052506;28;20943;-58
2022/09/21 03:05:57;;;;;;;6.47;3.50;;;;;;;;;;5052592;28;20811;-57
2022/09/21 03:08:26;;;;;;;5.50;3.80;;;;;;;;;;5052583;28;20440;-59
2022/09/21 03:10:53;;;;;;;5.17;2.93;;;;;;;;;;5052328;28;20455;-58
2022/09/21 03:13:20;;;;;;;4.10;3.70;;;;;;;;;;5052546;28;20530;-57
2022/09/21 03:15:47;;;;;;;3.75;3.47;;;;;;;;;;5052636;28;20451;-56
2022/09/21 03:18:14;;;;;;;6.20;3.20;;;;;;;;;;5052617;28;20539;-58
2022/09/21 03:20:45;;;;;;;6.50;4.03;;;;;;;;;;5056563;28;21017;-58
2022/09/21 03:23:12;;;;;;;5.47;3.30;;;;;;;;;;5056286;28;20456;-59
2022/09/21 03:25:40;;;;;;;4.53;3.60;;;;;;;;;;5056614;28;20456;-58
2022/09/21 03:28:08;;;;;;;3.60;3.33;;;;;;;;;;5056477;28;20455;-58
2022/09/21 03:30:35;;;;;;;3.93;3.37;;;;;;;;;;5056380;28;20761;-57
2022/09/21 03:33:02;;;;;;;4.00;3.60;;;;;;;;;;5056285;28;20538;-57
2022/09/21 03:35:29;;;;;;;3.67;3.23;;;;;;;;;;5056618;28;20455;-57
2022/09/21 03:37:56;;;;;;;3.57;3.27;;;;;;;;;;5056086;28;20448;-59
2022/09/21 03:40:25;;;;;;;5.80;4.53;;;;;;;;;;5056220;28;20484;-59
2022/09/21 03:42:53;;;;;;;5.40;3.97;;;;;;;;;;5056092;28;20449;-58
2022/09/21 03:45:21;;;;;;;6.37;4.40;;;;;;;;;;5055914;28;21032;-58
2022/09/21 03:47:48;;;;;;;6.47;3.93;;;;;;;;;;5056852;28;20471;-56
2022/09/21 03:50:16;;;;;;;4.90;3.43;;;;;;;;;;5055937;28;20450;-56
2022/09/21 03:52:43;;;;;;;4.00;3.60;;;;;;;;;;5056021;28;20535;-58
2022/09/21 03:55:10;;;;;;;7.60;3.93;;;;;;;;;;5055927;28;20531;-57
2022/09/21 03:57:37;;;;;;;4.17;3.80;;;;;;;;;;5055874;28;20539;-58
2022/09/21 04:00:08;;;;;;;13.50;4.20;;;;;;;;;;5055778;28;20557;-56
2022/09/21 04:02:35;;;;;;;4.85;4.45;;;;;;;;;;5055705;28;20463;-57
2022/09/21 04:05:02;;;;;;;4.97;4.22;;;;;;;;;;5055543;28;20197;-58
2022/09/21 04:07:33;;;;;;;5.40;3.90;;;;;;;;;;5055771;28;20189;-59
2022/09/21 04:10:00;;;;;;;4.10;3.70;;;;;;;;;;5055683;28;20193;-55
2022/09/21 04:12:27;;;;;;;4.57;4.17;;;;;;;;;;5055347;28;20948;-57
2022/09/21 04:14:55;;;;;;;4.22;3.90;;;;;;;;;;5055439;28;20963;-58
2022/09/21 04:17:23;;;;;;;4.17;3.87;;;;;;;;;;5055561;28;20667;-57
2022/09/21 04:19:50;;;;;;;4.20;3.80;;;;;;;;;;5055198;28;20563;-59
2022/09/21 04:22:17;;;;;;;4.75;4.25;;;;;;;;;;5054839;28;20196;-55
2022/09/21 04:24:44;;;;;;;11.07;4.90;;;;;;;;;;5055228;28;20196;-58
2022/09/21 04:27:11;;;;;;;6.37;4.50;;;;;;;;;;5055041;28;20715;-58
2022/09/21 04:29:38;;;;;;;5.17;4.67;;;;;;;;;;5055308;28;20909;-59
2022/09/21 04:32:06;;;;;;;5.50;5.00;;;;;;;;;;5054278;28;20965;-57
2022/09/21 04:34:35;;;;;;;5.60;4.90;;;;;;;;;;5055211;28;20452;-57
2022/09/21 04:37:02;;;;;;;11.77;5.97;;;;;;;;;;5055162;28;20527;-58
2022/09/21 04:39:29;;;;;;;5.75;5.35;;;;;;;;;;5054956;28;20663;-56
2022/09/21 04:41:56;;;;;;;9.65;6.18;;;;;;;;;;5054884;28;20190;-57
2022/09/21 04:44:23;;;;;;;8.68;5.32;;;;;;;;;;5054747;28;20194;-58
2022/09/21 04:46:50;;;;;;;16.43;6.57;;;;;;;;;;5054555;28;20197;-58
2022/09/21 04:49:16;;;;;;;21.92;7.70;;;;;;;;;;5054985;28;20951;-57
2022/09/21 04:51:45;;;;;;;7.75;4.95;;;;;;;;;;5054745;28;20204;-54
2022/09/21 04:54:12;;;;;;;8.15;6.18;;;;;;;;;;5054708;28;20196;-56
2022/09/21 04:56:39;;;;;;;15.30;5.55;;;;;;;;;;5054812;28;20194;-54
2022/09/21 04:59:06;;;;;;;7.65;5.53;;;;;;;;;;5054799;28;20186;-57
2022/09/21 05:01:33;;;;;;;7.15;4.28;;;;;;;;;;5054577;28;20224;-57
2022/09/21 05:04:01;;;;;;;12.05;5.70;;;;;;;;;;5054557;28;20222;-58
2022/09/21 05:06:28;;;;;;;10.57;4.70;;;;;;;;;;5054561;28;20198;-58
2022/09/21 05:11:41;;;;;;;13.52;5.03;;;;;;;;;;5054466;28;20288;-57
2022/09/21 05:14:09;;;;;;;10.50;5.70;;;;;;;;;;5054463;28;20196;-59
2022/09/21 05:16:36;;;;;;;5.45;4.30;;;;;;;;;;5054222;28;20198;-57
2022/09/21 05:19:03;;;;;;;5.67;5.17;;;;;;;;;;5054280;28;20650;-57
2022/09/21 05:21:30;;;;;;;15.90;6.00;;;;;;;;;;5054052;28;20839;-56
2022/09/21 05:23:59;;;;;;;7.43;4.70;;;;;;;;;;5053930;28;20191;-56
2022/09/21 05:26:26;;;;;;;4.70;4.30;;;;;;;;;;5054046;28;20649;-57
2022/09/21 05:28:53;;;;;;;3.93;3.63;;;;;;;;;;5054140;28;20803;-58
2022/09/21 05:31:28;;;;;;;4.90;4.40;;;;;;;;;;5053997;28;20455;-57
2022/09/21 05:33:57;;;;;;;5.60;3.80;;;;;;;;;;5054291;28;20459;-57
2022/09/21 05:36:29;;;;;;;3.70;3.50;;;;;;;;;;5053820;28;20535;-58
2022/09/21 05:38:56;;;;;;;4.77;3.93;;;;;;;;;;5053755;28;20448;-58
2022/09/21 05:41:25;;;;;;;4.37;3.37;;;;;;;;;;5053561;28;20484;-58
2022/09/21 05:43:52;;;;;;;3.80;3.40;;;;;;;;;;5053152;28;20452;-57
2022/09/21 05:46:21;;;;;;;3.17;2.93;;;;;;;;;;5053789;28;20444;-57
2022/09/21 05:48:53;;;;;;;4.87;3.93;;;;;;;;;;5053249;28;20969;-57
2022/09/21 05:51:27;;;;;;;3.70;3.40;;;;;;;;;;5053448;28;20484;-57
2022/09/21 05:53:59;;;;;;;7.40;4.90;;;;;;;;;;5053637;28;20454;-59
2022/09/21 05:56:37;;;;;;;6.83;4.73;;;;;;;;;;5053559;28;20799;-58
2022/09/21 05:59:08;;;;;;;4.80;4.40;;;;;;;;;;5053541;28;20454;-58
2022/09/21 06:01:40;;;;;;;4.60;4.20;;;;;;;;;;5053117;28;21147;-59
2022/09/21 06:04:10;;;;;;;4.70;4.30;;;;;;;;;;5053530;28;20811;-58
2022/09/21 06:06:37;;;;;;;5.17;4.47;;;;;;;;;;5053456;28;20456;-58
2022/09/21 06:09:04;;;;;;;7.60;4.47;;;;;;;;;;5053196;28;20444;-57
2022/09/21 06:11:33;;;;;;;4.70;4.30;;;;;;;;;;5053044;28;20539;-58
2022/09/21 06:14:01;;;;;;;5.47;4.37;;;;;;;;;;5053047;28;20444;-58
2022/09/21 06:16:28;;;;;;;4.57;4.17;;;;;;;;;;5053002;28;20445;-58
2022/09/21 06:18:55;;;;;;;4.60;4.20;;;;;;;;;;5053111;28;20448;-59
2022/09/21 06:21:22;;;;;;;4.33;4.03;;;;;;;;;;5053026;28;20516;-58
2022/09/21 06:23:49;;;;;;;4.63;3.73;;;;;;;;;;5052940;28;20786;-56
2022/09/21 06:26:16;;;;;;;6.47;4.60;;;;;;;;;;5052903;28;20539;-58
2022/09/21 06:28:44;;;;;;;5.30;4.40;;;;;;;;;;5052927;28;20836;-58
2022/09/21 06:31:11;;;;;;;4.67;4.23;;;;;;;;;;5052953;28;20448;-58
2022/09/21 06:33:38;;;;;;;4.53;4.23;;;;;;;;;;5052822;28;20448;-58
2022/09/21 06:36:05;;;;;;;4.97;3.93;;;;;;;;;;5053139;28;20455;-59
2022/09/21 06:38:34;;;;;;;4.70;4.30;;;;;;;;;;5052724;28;20476;-58
2022/09/21 06:41:02;;;;;;;4.90;4.50;;;;;;;;;;5053019;28;20476;-57
2022/09/21 06:43:29;;;;;;;6.57;5.60;;;;;;;;;;5052405;28;20456;-58
2022/09/21 06:45:58;;;;;;;6.67;4.37;;;;;;;;;;5052626;28;20868;-58
2022/09/21 06:48:25;;;;;;;5.33;4.30;;;;;;;;;;5052534;28;20476;-58
2022/09/21 06:50:57;;;;;;;5.60;4.70;;;;;;;;;;5052590;28;20449;-58
2022/09/21 06:53:24;;;;;;;5.60;5.10;;;;;;;;;;5052236;28;20456;-58
2022/09/21 06:55:51;;;;;;;6.27;4.97;;;;;;;;;;5052427;28;20448;-58
2022/09/21 06:58:18;;;;;;;6.87;6.00;;;;;;;;;;5052706;28;20448;-54
2022/09/21 07:00:45;;;;;;;6.80;5.57;;;;;;;;;;5052437;28;20472;-53
2022/09/21 07:03:13;;;;;;;5.00;4.60;;;;;;;;;;5052278;28;20455;-54
2022/09/21 07:05:40;;;;;;;5.43;4.93;;;;;;;;;;5052743;28;20470;-53
2022/09/21 07:08:07;;;;;;;7.40;6.73;;;;;;;;;;5073626;28;20447;-51
2022/09/21 07:10:34;;;;;;;5.17;4.73;;;;;;;;;;5073179;28;20451;-53
2022/09/21 07:13:03;;;;;;;5.03;4.53;;;;;;;;;;5075608;28;20442;-54
2022/09/21 07:15:30;;;;;;;7.37;5.80;;;;;;;;;;5077454;28;20685;-51
2022/09/21 07:17:57;;;;;;;6.23;5.60;;;;;;;;;;5072054;28;20498;-51
2022/09/21 07:20:25;;;;;;;8.13;5.27;;;;;;;;;;5071852;28;20550;-51
2022/09/21 07:22:52;;;;;;;11.33;5.30;;;;;;;;;;5072025;28;20436;-51
2022/09/21 07:25:19;;;;;;;5.33;4.80;;;;;;;;;;5076629;28;20439;-53
2022/09/21 07:27:47;;;;;;;5.33;4.33;;;;;;;;;;5092859;28;20469;-51
2022/09/21 07:30:14;;;;;;;4.90;4.50;;;;;;;;;;5092445;28;20446;-51
2022/09/21 07:32:41;;;;;;;5.10;4.70;;;;;;;;;;5092404;28;20478;-56
2022/09/21 07:35:08;;;;;;;5.70;5.13;;;;;;;;;;5091234;28;20809;-51
2022/09/21 07:37:36;;;;;;;6.53;4.53;;;;;;;;;;5071653;28;20790;-50
2022/09/21 07:40:04;;;;;;;5.30;4.40;;;;;;;;;;5071558;28;20447;-53
2022/09/21 07:42:31;;;;;;;5.87;5.20;;;;;;;;;;5071929;28;20803;-51
2022/09/21 07:44:58;;;;;;;9.10;6.03;;;;;;;;;;5071496;28;20962;-54
2022/09/21 07:47:26;;;;;;;6.17;5.10;;;;;;;;;;5071406;28;20471;-50
2022/09/21 07:49:54;;;;;;;5.77;5.20;;;;;;;;;;5071561;28;20451;-53
2022/09/21 07:52:21;;;;;;;10.63;6.30;;;;;;;;;;5072536;28;20512;-52
2022/09/21 07:54:50;;;;;;;5.57;4.93;;;;;;;;;;5072236;28;20542;-50
2022/09/21 08:00:01;;;;;;;6.03;5.43;;;;;;;;;;5072124;28;20451;-53
2022/09/21 08:02:28;;;;;;;7.20;5.80;;;;;;;;;;5071764;28;20501;-52
2022/09/21 08:04:55;;;;;;;6.10;5.40;;;;;;;;;;5072490;28;20458;-50
2022/09/21 08:07:23;;;;;;;8.03;6.10;;;;;;;;;;5075279;28;20454;-50
2022/09/21 08:09:51;;;;;;;6.43;5.80;;;;;;;;;;5075587;28;20455;-56
2022/09/21 08:12:19;;;;;;;6.50;5.90;;;;;;;;;;5075417;28;20542;-50
2022/09/21 08:14:46;;;;;;;8.20;6.30;;;;;;;;;;5075467;28;20451;-52
2022/09/21 08:17:14;;;;;;;5.60;5.03;;;;;;;;;;5075323;28;20508;-53
2022/09/21 08:19:41;;;;;;;6.73;6.13;;;;;;;;;;5075558;28;20454;-55
2022/09/21 08:22:08;;;;;;;7.87;6.00;;;;;;;;;;5075190;28;20483;-50
2022/09/21 08:24:36;;;;;;;8.97;5.93;;;;;;;;;;5075376;28;20965;-52
2022/09/21 08:27:04;;;;;;;10.47;5.73;;;;;;;;;;5075192;28;20455;-51
2022/09/21 08:29:31;;;;;;;7.27;6.10;;;;;;;;;;5075173;28;20447;-54
2022/09/21 08:31:58;;;;;;;6.50;5.87;;;;;;;;;;5084752;28;20449;-51
2022/09/21 08:34:25;;;;;;;7.57;6.00;;;;;;;;;;5095430;28;20616;-53
2022/09/21 08:36:52;;;;;;;11.93;6.10;;;;;;;;;;5095379;28;20449;-50
2022/09/21 08:39:19;;;;;;;11.40;6.53;;;;;;;;;;5095179;28;20465;-52
2022/09/21 08:41:52;;;;;;;6.53;6.03;;;;;;;;;;5094957;28;20479;-51
2022/09/21 08:44:24;;;;;;;11.97;6.00;;;;;;;;;;5094979;28;20538;-50
2022/09/21 08:46:56;;;;;;;17.10;5.97;;;;;;;;;;5094961;28;20953;-52
2022/09/21 08:49:25;;;;;;;5.37;4.83;;;;;;;;;;5095040;28;20447;-53
2022/09/21 08:51:55;;;;;;;3.73;3.43;;;;;;;;;;5074287;28;20447;-53
2022/09/21 08:54:25;;;;;;;3.27;3.03;;;;;;;;;;5074123;28;20448;-54
2022/09/21 08:56:52;;;;;;;5.10;3.50;;;;;;;;;;5073997;28;20431;-55
2022/09/21 08:59:21;;;;;;;5.13;2.67;;;;;;;;;;5074200;28;20504;-52
2022/09/21 09:01:54;;;;;;;3.90;2.23;;;;;;;;;;5074213;28;20475;-54
2022/09/21 09:04:29;;;;;;;3.50;3.20;;;;;;;;;;5065589;28;20836;-51
2022/09/21 09:07:03;;;;;;;3.07;2.33;;;;;;;;;;5067822;28;20448;-54
2022/09/21 09:09:40;;;;;;;4.60;2.70;;;;;;;;;;5055305;28;20478;-51
2022/09/21 09:12:17;;;;;;;3.10;2.73;;;;;;;;;;5071010;28;20461;-51
2022/09/21 09:14:52;;;;;;;5.40;3.03;;;;;;;;;;5073441;28;20822;-54
2022/09/21 09:17:27;;;;;;;4.40;2.40;;;;;;;;;;5065785;28;20938;-54
2022/09/21 09:19:57;;;;;;;7.80;2.83;;;;;;;;;;5074598;28;20449;-54
2022/09/21 09:22:26;;;;;;;3.20;2.70;;;;;;;;;;5073978;28;20493;-58
2022/09/21 09:24:55;;;;;;;3.00;2.40;;;;;;;;;;5074154;28;20444;-54
2022/09/21 09:27:24;;;;;;;4.17;2.83;;;;;;;;;;5069134;28;20962;-55
2022/09/21 09:29:56;;;;;;;4.33;2.43;;;;;;;;;;5073794;28;20447;-57
2022/09/21 09:32:27;;;;;;;4.57;2.83;;;;;;;;;;5065922;28;20517;-55
2022/09/21 09:34:58;;;;;;;4.57;2.50;;;;;;;;;;5068770;28;20447;-50
2022/09/21 09:37:29;;;;;;;4.80;3.13;;;;;;;;;;5072935;28;20447;-58
2022/09/21 09:39:57;;;;;;;2.57;2.37;;;;;;;;;;5072301;28;20451;-58
2022/09/21 09:42:29;;;;;;;3.70;3.10;;;;;;;;;;5073431;28;20486;-58
2022/09/21 09:45:17;;;;;;;4.33;2.70;;;;;;;;;;5053791;28;20774;-57
2022/09/21 09:47:51;;;;;;;3.50;2.50;;;;;;;;;;5066063;28;20533;-54
2022/09/21 09:50:20;;;;;;;3.30;2.27;;;;;;;;;;5073633;28;20457;-56
2022/09/21 09:52:47;;;;;;;2.80;2.47;;;;;;;;;;5073394;28;20796;-58
2022/09/21 09:55:19;;;;;;;3.53;2.60;;;;;;;;;;5065947;28;20986;-58
2022/09/21 09:57:46;;;;;;;4.47;1.97;;;;;;;;;;5070305;28;20535;-57
2022/09/21 10:00:16;;;;;;;4.60;2.00;;;;;;;;;;5069131;28;20451;-57
2022/09/21 10:02:48;;;;;;;3.37;1.93;;;;;;;;;;5068243;28;20903;-58
2022/09/21 10:05:19;;;;;;;6.03;1.70;;;;;;;;;;5053280;28;20993;-58
2022/09/21 10:07:46;;;;;;;11.57;2.73;;;;;;;;;;5063012;28;20444;-58
2022/09/21 10:10:23;;;;;;;2.30;1.50;;;;;;;;;;5070129;28;20881;-50
2022/09/21 10:12:51;;;;;;;4.17;1.90;;;;;;;;;;5071967;28;20953;-49
2022/09/21 10:15:21;;;;;;;2.30;1.23;;;;;;;;;;5066066;28;20475;-51
2022/09/21 10:17:48;;;;;;;4.20;1.40;;;;;;;;;;5072917;28;20447;-48
2022/09/21 10:20:16;;;;;;;1.30;1.10;;;;;;;;;;5071650;28;20451;-52
2022/09/21 10:22:46;;;;;;;3.53;1.90;;;;;;;;;;5072805;28;20570;-57
2022/09/21 10:25:15;;;;;;;6.27;2.47;;;;;;;;;;5072900;28;20536;-58
2022/09/21 10:27:44;;;;;;;1.60;1.50;;;;;;;;;;5073517;28;20942;-56
2022/09/21 10:30:31;;;;;;;6.57;5.80;;;;;;;;;;5071187;28;20494;-56
2022/09/21 10:33:00;;;;;;;3.20;1.70;;;;;;;;;;5071583;28;20455;-55
2022/09/21 10:35:27;;;;;;;3.37;3.03;;;;;;;;;;5072900;28;20456;-58
2022/09/21 10:38:09;;;;;;;2.60;2.33;;;;;;;;;;5072804;28;20447;-55
2022/09/21 10:40:36;;;;;;;3.97;1.50;;;;;;;;;;5071900;28;20954;-58
2022/09/21 10:43:03;;;;;;;1.20;1.10;;;;;;;;;;5070058;28;20467;-56
2022/09/21 10:45:32;;;;;;;1.50;1.10;;;;;;;;;;5061727;28;20535;-59
2022/09/21 10:48:08;;;;;;;1.83;1.13;;;;;;;;;;5072560;28;20482;-58
2022/09/21 10:50:36;;;;;;;1.27;0.90;;;;;;;;;;5069576;28;20459;-59
2022/09/21 10:53:11;;;;;;;1.37;1.23;;;;;;;;;;5065401;28;20447;-58
2022/09/21 10:55:40;;;;;;;1.37;1.20;;;;;;;;;;5072759;28;20818;-57
2022/09/21 10:58:09;;;;;;;1.00;0.80;;;;;;;;;;5072562;28;20815;-51
2022/09/21 11:00:41;;;;;;;1.60;0.87;;;;;;;;;;5071634;28;20454;-51
2022/09/21 11:03:27;;;;;;;3.33;1.30;;;;;;;;;;5072142;28;20481;-53
2022/09/21 11:05:56;;;;;;;2.77;1.60;;;;;;;;;;5071164;28;20444;-50
2022/09/21 11:08:25;;;;;;;1.40;1.13;;;;;;;;;;5069359;28;20450;-50
2022/09/21 11:11:03;;;;;;;1.77;1.20;;;;;;;;;;5070765;28;20861;-54
2022/09/21 11:13:33;;;;;;;3.17;1.00;;;;;;;;;;5071017;28;20594;-54
2022/09/21 11:16:03;;;;;;;1.30;0.90;;;;;;;;;;5072106;28;20442;-54
2022/09/21 11:18:37;;;;;;;3.37;1.07;;;;;;;;;;5072771;28;20458;-50
2022/09/21 11:21:09;;;;;;;3.43;1.40;;;;;;;;;;5072562;28;20443;-53
2022/09/21 11:23:44;;;;;;;3.07;2.70;;;;;;;;;;5072301;28;20955;-50
2022/09/21 11:26:15;;;;;;;3.17;1.80;;;;;;;;;;5071657;28;21007;-58
2022/09/21 11:28:46;;;;;;;8.17;4.73;;;;;;;;;;5071507;28;20451;-50
2022/09/21 11:31:23;;;;;;;7.00;4.10;;;;;;;;;;5061911;28;20540;-51
2022/09/21 11:34:06;;;;;;;3.37;1.83;;;;;;;;;;5072382;28;20453;-53
2022/09/21 11:36:40;;;;;;;3.03;1.87;;;;;;;;;;5072587;28;20720;-54
2022/09/21 11:39:10;;;;;;;1.50;1.40;;;;;;;;;;5066748;28;20548;-50
2022/09/21 11:41:48;;;;;;;2.50;1.10;;;;;;;;;;5076241;28;20478;-52
2022/09/21 11:44:31;;;;;;;3.07;1.00;;;;;;;;;;5072451;28;20957;-55
2022/09/21 11:47:02;;;;;;;1.17;0.87;;;;;;;;;;5075868;28;20450;-54
2022/09/21 11:49:44;;;;;;;1.00;0.90;;;;;;;;;;5075074;28;20502;-54
2022/09/21 11:52:20;;;;;;;0.80;0.73;;;;;;;;;;5068800;28;20464;-55
2022/09/21 11:54:56;;;;;;;2.50;1.13;;;;;;;;;;5072201;28;20447;-53
2022/09/21 11:57:24;;;;;;;1.10;0.80;;;;;;;;;;5073631;28;20447;-49
2022/09/21 11:59:59;;;;;;;1.10;1.00;;;;;;;;;;5075777;28;20507;-54
2022/09/21 12:02:41;;;;;;;0.80;0.80;;;;;;;;;;5075731;28;20514;-53
2022/09/21 12:05:15;;;;;;;1.33;1.00;;;;;;;;;;5075745;28;20451;-55
2022/09/21 12:07:52;;;;;;;1.00;0.90;;;;;;;;;;5075598;28;20453;-53
2022/09/21 12:10:29;;;;;;;4.17;1.30;;;;;;;;;;5075493;28;20457;-50
2022/09/21 12:12:58;;;;;;;1.63;0.90;;;;;;;;;;5075740;28;20453;-55
2022/09/21 12:15:31;;;;;;;1.63;0.80;;;;;;;;;;5075386;28;20448;-53
2022/09/21 12:18:04;;;;;;;3.13;0.80;;;;;;;;;;5075535;28;20451;-51
2022/09/21 12:20:36;;;;;;;2.07;0.87;;;;;;;;;;5075546;28;20487;-55
2022/09/21 12:23:06;;;;;;;1.03;0.90;;;;;;;;;;5075053;28;20500;-54
2022/09/21 12:25:34;;;;;;;1.77;0.87;;;;;;;;;;5075637;28;20547;-54
2022/09/21 12:28:04;;;;;;;1.60;0.97;;;;;;;;;;5075378;28;20462;-54
2022/09/21 12:30:32;;;;;;;1.13;1.03;;;;;;;;;;5075251;28;20615;-55
2022/09/21 12:33:02;;;;;;;1.23;0.70;;;;;;;;;;5075129;28;20792;-54
2022/09/21 12:35:31;;;;;;;3.13;1.27;;;;;;;;;;5074959;28;20443;-51
2022/09/21 12:38:01;;;;;;;1.10;0.80;;;;;;;;;;5075148;28;20542;-53
2022/09/21 12:40:34;;;;;;;0.80;0.77;;;;;;;;;;5074911;28;21034;-52
2022/09/21 12:43:03;;;;;;;0.77;0.70;;;;;;;;;;5074846;28;20533;-52
2022/09/21 12:45:32;;;;;;;1.70;0.77;;;;;;;;;;5074747;28;20446;-55
2022/09/21 12:48:02;;;;;;;1.27;0.80;;;;;;;;;;5074738;28;20474;-56
2022/09/21 12:50:36;;;;;;;1.63;1.00;;;;;;;;;;5074743;28;20554;-56
2022/09/21 12:53:04;;;;;;;1.00;0.90;;;;;;;;;;5074069;28;20450;-55
2022/09/21 12:55:35;;;;;;;0.80;0.80;;;;;;;;;;5074568;28;20510;-55
2022/09/21 12:58:06;;;;;;;1.47;0.80;;;;;;;;;;5074636;28;20542;-55
2022/09/21 13:00:38;;;;;;;1.00;0.90;;;;;;;;;;5074522;28;20452;-56
2022/09/21 13:03:10;;;;;;;1.47;0.90;;;;;;;;;;5074689;28;20494;-55
2022/09/21 13:05:39;;;;;;;1.73;1.10;;;;;;;;;;5074442;28;20457;-55
2022/09/21 13:08:10;;;;;;;1.00;0.87;;;;;;;;;;5074300;28;20819;-54
2022/09/21 13:10:49;;;;;;;1.03;0.80;;;;;;;;;;5074496;28;20947;-54
2022/09/21 13:13:23;;;;;;;3.23;1.20;;;;;;;;;;5074715;28;20534;-55
2022/09/21 13:15:50;;;;;;;0.90;0.80;;;;;;;;;;5074410;28;20448;-55
2022/09/21 13:18:20;;;;;;;1.57;0.90;;;;;;;;;;5074306;28;20447;-52
2022/09/21 13:20:47;;;;;;;3.33;1.30;;;;;;;;;;5074285;28;20517;-52
2022/09/21 13:23:16;;;;;;;2.27;0.90;;;;;;;;;;5074031;28;20483;-54
2022/09/21 13:25:48;;;;;;;1.00;0.90;;;;;;;;;;5074305;28;20806;-53
2022/09/21 13:28:22;;;;;;;1.77;1.00;;;;;;;;;;5074299;28;20448;-51
2022/09/21 13:30:50;;;;;;;0.70;0.63;;;;;;;;;;5074257;28;20814;-50
2022/09/21 13:33:30;;;;;;;0.70;0.70;;;;;;;;;;5074094;28;21025;-53
2022/09/21 13:36:02;;;;;;;3.50;0.80;;;;;;;;;;5073708;28;20447;-50
2022/09/21 13:38:32;;;;;;;0.90;0.80;;;;;;;;;;5073908;28;20815;-52
2022/09/21 13:41:00;;;;;;;1.43;1.00;;;;;;;;;;5073761;28;20946;-55
2022/09/21 13:43:54;;;;;;;0.77;0.73;;;;;;;;;;5073615;28;20899;-53
2022/09/21 13:46:41;;;;;;;0.80;0.80;;;;;;;;;;5073442;28;20447;-54
2022/09/21 13:49:17;;;;;;;1.93;0.90;;;;;;;;;;5073443;28;20494;-52
2022/09/21 13:51:51;;;;;;;0.90;0.80;;;;;;;;;;5073740;28;20457;-52
2022/09/21 13:54:18;;;;;;;1.17;0.80;;;;;;;;;;5073503;28;20454;-53
2022/09/21 13:56:45;;;;;;;1.00;0.90;;;;;;;;;;5073357;28;20487;-49
2022/09/21 13:59:20;;;;;;;2.93;0.97;;;;;;;;;;5073616;28;20470;-52
2022/09/21 14:01:47;;;;;;;1.77;0.90;;;;;;;;;;5073489;28;20782;-52
2022/09/21 14:04:20;;;;;;;2.20;0.80;;;;;;;;;;5072464;28;20566;-54
2022/09/21 14:06:49;;;;;;;1.10;1.00;;;;;;;;;;5073330;28;20490;-52
2022/09/21 14:09:22;;;;;;;1.93;0.80;;;;;;;;;;5073151;28;20451;-52
2022/09/21 14:11:54;;;;;;;1.07;0.97;;;;;;;;;;5073344;28;20527;-52
2022/09/21 14:14:27;;;;;;;0.80;0.80;;;;;;;;;;5073202;28;20451;-50
2022/09/21 14:16:56;;;;;;;4.10;0.90;;;;;;;;;;5073203;28;20448;-50
2022/09/21 14:19:42;;;;;;;0.80;0.80;;;;;;;;;;5072978;28;20447;-53
2022/09/21 14:22:27;;;;;;;1.23;0.80;;;;;;;;;;5073073;28;20804;-54
2022/09/21 14:25:10;;;;;;;1.53;1.00;;;;;;;;;;5073046;28;20535;-55
2022/09/21 14:27:40;;;;;;;0.80;0.80;;;;;;;;;;5072931;28;20452;-55
2022/09/21 14:30:18;;;;;;;0.87;0.70;;;;;;;;;;5072951;28;20451;-49
2022/09/21 14:32:47;;;;;;;0.93;0.70;;;;;;;;;;5073089;28;20475;-52
2022/09/21 14:35:17;;;;;;;2.40;0.90;;;;;;;;;;5073025;28;20450;-50
2022/09/21 14:37:47;;;;;;;1.80;1.00;;;;;;;;;;5072797;28;20895;-49
2022/09/21 14:40:19;;;;;;;0.83;0.77;;;;;;;;;;5072823;28;20985;-54
2022/09/21 14:42:48;;;;;;;1.63;0.93;;;;;;;;;;5072441;28;20800;-54
2022/09/21 14:45:17;;;;;;;2.50;1.13;;;;;;;;;;5072991;28;20958;-55
2022/09/21 14:47:56;;;;;;;1.73;1.00;;;;;;;;;;5072718;28;20562;-52
2022/09/21 14:50:30;;;;;;;1.63;1.07;;;;;;;;;;5072598;28;20550;-53
2022/09/21 14:53:09;;;;;;;2.33;1.07;;;;;;;;;;5072452;28;20508;-49
2022/09/21 14:55:45;;;;;;;2.03;0.77;;;;;;;;;;5072892;28;20505;-60
2022/09/21 14:58:21;;;;;;;2.23;1.00;;;;;;;;;;5072605;28;20479;-50
2022/09/21 15:00:48;;;;;;;1.00;0.90;;;;;;;;;;5072512;28;20469;-54
2022/09/21 15:03:34;;;;;;;0.80;0.77;;;;;;;;;;5072338;28;20970;-51
2022/09/21 15:10:54;;;;;;;0.80;0.80;;;;;;;;;;5072760;28;20443;-54